<?xml version="1.0" encoding="UTF-8" standalone="no" ?>
<gpx xmlns="http://www.topografix.com/GPX/1/1" xmlns:xsi="http://www.w3.org/2001/XMLSchema-instance" xsi:schemaLocation="http://www.topografix.com/GPX/1/1 http://www.topografix.com/GPX/1/1/gpx.xsd" version="1.1" creator="VisuGPX - https://www.visugpx.com">
  <metadata>
    <name>église Saint Marcel - Pic de Borgne</name>
    <desc><![CDATA[2017-06 - ancienne église de Saint Marcel de Fontfouillouse - Pic de Borgne

[b]album[/b] : [url]https://goo.gl/photos/K3sLFzspNcTcamsY6[/url]
[img]https://1.bp.blogspot.com/-YPKerzjNgbg/WT1uRJISLpI/AAAAAAAAUlg/xgY5KzK8bhcRQ1ZumIq2SWeqDndVSHnJQCLcB/s1600/2017-06-10_eglise-fontfouillouse_pic-borgne_i.JPG[/img]
[b]Idées de randonnées dans la même région[/b]
Parcours : [url]https://www.visugpx.com/membres/24856/montagne/cevennes/[/url]
Photos : [url]https://jcvertygo.blogspot.com/p/cevennes-meridionales.html[/url]]]></desc>
  </metadata>
  <trk>
    <name><![CDATA[église Saint Marcel - Pic de Borgne_1]]></name>
    <trkseg>
      <trkpt lat="44.1252" lon="3.70926">
        <ele>599.3</ele>
        <time>2017-06-10T16:43:25Z</time>
      </trkpt>
      <trkpt lat="44.12532" lon="3.70925">
        <ele>599.82372062589</ele>
        <time>2017-06-10T16:43:30Z</time>
      </trkpt>
      <trkpt lat="44.12534" lon="3.70921">
        <ele>599.82372062589</ele>
        <time>2017-06-10T16:43:35Z</time>
      </trkpt>
      <trkpt lat="44.12536" lon="3.70923">
        <ele>599.82372062589</ele>
        <time>2017-06-10T16:43:40Z</time>
      </trkpt>
      <trkpt lat="44.12539" lon="3.70921">
        <ele>603.32582708375</ele>
        <time>2017-06-10T16:43:49Z</time>
      </trkpt>
      <trkpt lat="44.12563" lon="3.70917">
        <ele>606.41881079745</ele>
        <time>2017-06-10T16:44:06Z</time>
      </trkpt>
      <trkpt lat="44.12578" lon="3.70922">
        <ele>609.78407190062</ele>
        <time>2017-06-10T16:44:31Z</time>
      </trkpt>
      <trkpt lat="44.1258" lon="3.70924">
        <ele>609.78407190062</ele>
        <time>2017-06-10T16:44:38Z</time>
      </trkpt>
      <trkpt lat="44.12583" lon="3.70922">
        <ele>609.78407190062</ele>
        <time>2017-06-10T16:44:40Z</time>
      </trkpt>
      <trkpt lat="44.12589" lon="3.70919">
        <ele>613.7756533397</ele>
        <time>2017-06-10T16:44:50Z</time>
      </trkpt>
      <trkpt lat="44.12589" lon="3.70919">
        <ele>613.7756533397</ele>
        <time>2017-06-10T16:44:54Z</time>
      </trkpt>
      <trkpt lat="44.12589" lon="3.70919">
        <ele>613.7756533397</ele>
        <time>2017-06-10T16:44:58Z</time>
      </trkpt>
      <trkpt lat="44.12612" lon="3.70907">
        <ele>617.75823545164</ele>
        <time>2017-06-10T16:45:28Z</time>
      </trkpt>
      <trkpt lat="44.12613" lon="3.70906">
        <ele>617.75823545164</ele>
        <time>2017-06-10T16:45:30Z</time>
      </trkpt>
      <trkpt lat="44.12612" lon="3.709">
        <ele>617.75823545164</ele>
        <time>2017-06-10T16:45:37Z</time>
      </trkpt>
      <trkpt lat="44.12617" lon="3.70894">
        <ele>621.35122411174</ele>
        <time>2017-06-10T16:45:48Z</time>
      </trkpt>
      <trkpt lat="44.12618" lon="3.70893">
        <ele>621.35122411174</ele>
        <time>2017-06-10T16:45:50Z</time>
      </trkpt>
      <trkpt lat="44.12639" lon="3.7087">
        <ele>625.16410191838</ele>
        <time>2017-06-10T16:47:00Z</time>
      </trkpt>
      <trkpt lat="44.12701" lon="3.70795">
        <ele>629.06288184395</ele>
        <time>2017-06-10T16:49:00Z</time>
      </trkpt>
      <trkpt lat="44.12731" lon="3.70776">
        <ele>633.36962375666</ele>
        <time>2017-06-10T16:49:50Z</time>
      </trkpt>
      <trkpt lat="44.1273" lon="3.70777">
        <ele>633.36962375666</ele>
        <time>2017-06-10T16:49:55Z</time>
      </trkpt>
      <trkpt lat="44.12784" lon="3.70786">
        <ele>642.66105904619</ele>
        <time>2017-06-10T16:51:40Z</time>
      </trkpt>
      <trkpt lat="44.12782" lon="3.70784">
        <ele>642.66105904619</ele>
        <time>2017-06-10T16:51:49Z</time>
      </trkpt>
      <trkpt lat="44.12782" lon="3.70783">
        <ele>642.66105904619</ele>
        <time>2017-06-10T16:51:50Z</time>
      </trkpt>
      <trkpt lat="44.12768" lon="3.7078">
        <ele>652.00258757574</ele>
        <time>2017-06-10T16:52:12Z</time>
      </trkpt>
      <trkpt lat="44.12763" lon="3.7078">
        <ele>652.00258757574</ele>
        <time>2017-06-10T16:52:12Z</time>
      </trkpt>
      <trkpt lat="44.12729" lon="3.70745">
        <ele>661.45858904681</ele>
        <time>2017-06-10T16:53:21Z</time>
      </trkpt>
      <trkpt lat="44.12717" lon="3.70741">
        <ele>669.86612475122</ele>
        <time>2017-06-10T16:53:40Z</time>
      </trkpt>
      <trkpt lat="44.12712" lon="3.70733">
        <ele>669.86612475122</ele>
        <time>2017-06-10T16:53:55Z</time>
      </trkpt>
      <trkpt lat="44.12714" lon="3.7073">
        <ele>677.44434621413</ele>
        <time>2017-06-10T16:54:00Z</time>
      </trkpt>
      <trkpt lat="44.12743" lon="3.70739">
        <ele>684.97017692198</ele>
        <time>2017-06-10T16:54:46Z</time>
      </trkpt>
      <trkpt lat="44.12746" lon="3.7074">
        <ele>684.97017692198</ele>
        <time>2017-06-10T16:54:46Z</time>
      </trkpt>
      <trkpt lat="44.12784" lon="3.70743">
        <ele>692.39184519727</ele>
        <time>2017-06-10T16:55:32Z</time>
      </trkpt>
      <trkpt lat="44.12805" lon="3.7075">
        <ele>699.50526369629</ele>
        <time>2017-06-10T16:56:08Z</time>
      </trkpt>
      <trkpt lat="44.12813" lon="3.70753">
        <ele>699.50526369629</ele>
        <time>2017-06-10T16:56:08Z</time>
      </trkpt>
      <trkpt lat="44.12826" lon="3.70766">
        <ele>706.2948138669</ele>
        <time>2017-06-10T16:56:32Z</time>
      </trkpt>
      <trkpt lat="44.12832" lon="3.70772">
        <ele>706.2948138669</ele>
        <time>2017-06-10T16:56:40Z</time>
      </trkpt>
      <trkpt lat="44.12841" lon="3.70804">
        <ele>712.79756421888</ele>
        <time>2017-06-10T16:57:22Z</time>
      </trkpt>
      <trkpt lat="44.12842" lon="3.70805">
        <ele>712.79756421888</ele>
        <time>2017-06-10T16:57:38Z</time>
      </trkpt>
      <trkpt lat="44.12838" lon="3.70817">
        <ele>718.52259726584</ele>
        <time>2017-06-10T16:58:11Z</time>
      </trkpt>
      <trkpt lat="44.12836" lon="3.70825">
        <ele>718.52259726584</ele>
        <time>2017-06-10T16:58:12Z</time>
      </trkpt>
      <trkpt lat="44.12834" lon="3.70851">
        <ele>723.31942636522</ele>
        <time>2017-06-10T16:58:35Z</time>
      </trkpt>
      <trkpt lat="44.12844" lon="3.70881">
        <ele>727.56819329256</ele>
        <time>2017-06-10T16:59:16Z</time>
      </trkpt>
      <trkpt lat="44.12852" lon="3.7088">
        <ele>727.56819329256</ele>
        <time>2017-06-10T16:59:24Z</time>
      </trkpt>
      <trkpt lat="44.12858" lon="3.70878">
        <ele>731.14212841138</ele>
        <time>2017-06-10T16:59:39Z</time>
      </trkpt>
      <trkpt lat="44.12869" lon="3.70874">
        <ele>734.16129447768</ele>
        <time>2017-06-10T16:59:57Z</time>
      </trkpt>
      <trkpt lat="44.12874" lon="3.70875">
        <ele>734.16129447768</ele>
        <time>2017-06-10T16:59:57Z</time>
      </trkpt>
      <trkpt lat="44.129" lon="3.70881">
        <ele>737.4628905963</ele>
        <time>2017-06-10T17:00:48Z</time>
      </trkpt>
      <trkpt lat="44.12955" lon="3.70907">
        <ele>741.33132353103</ele>
        <time>2017-06-10T17:02:11Z</time>
      </trkpt>
      <trkpt lat="44.12959" lon="3.70881">
        <ele>744.8068433611</ele>
        <time>2017-06-10T17:02:40Z</time>
      </trkpt>
      <trkpt lat="44.12958" lon="3.70879">
        <ele>744.8068433611</ele>
        <time>2017-06-10T17:03:00Z</time>
      </trkpt>
      <trkpt lat="44.12952" lon="3.70864">
        <ele>747.8815621523</ele>
        <time>2017-06-10T17:03:14Z</time>
      </trkpt>
      <trkpt lat="44.12952" lon="3.70863">
        <ele>747.8815621523</ele>
        <time>2017-06-10T17:03:15Z</time>
      </trkpt>
      <trkpt lat="44.12951" lon="3.70861">
        <ele>747.8815621523</ele>
        <time>2017-06-10T17:03:20Z</time>
      </trkpt>
      <trkpt lat="44.12947" lon="3.70855">
        <ele>747.8815621523</ele>
        <time>2017-06-10T17:03:25Z</time>
      </trkpt>
      <trkpt lat="44.12946" lon="3.70854">
        <ele>750.60215638714</ele>
        <time>2017-06-10T17:03:30Z</time>
      </trkpt>
      <trkpt lat="44.12919" lon="3.70745">
        <ele>753.96858780686</ele>
        <time>2017-06-10T17:05:21Z</time>
      </trkpt>
      <trkpt lat="44.12918" lon="3.70729">
        <ele>757.18036730824</ele>
        <time>2017-06-10T17:05:56Z</time>
      </trkpt>
      <trkpt lat="44.12919" lon="3.70723">
        <ele>757.18036730824</ele>
        <time>2017-06-10T17:06:00Z</time>
      </trkpt>
      <trkpt lat="44.12926" lon="3.70688">
        <ele>760.13746491615</ele>
        <time>2017-06-10T17:06:36Z</time>
      </trkpt>
      <trkpt lat="44.12932" lon="3.70672">
        <ele>762.70535235287</ele>
        <time>2017-06-10T17:07:00Z</time>
      </trkpt>
      <trkpt lat="44.12939" lon="3.70647">
        <ele>765.02356004313</ele>
        <time>2017-06-10T17:07:52Z</time>
      </trkpt>
      <trkpt lat="44.12941" lon="3.70631">
        <ele>766.97182668877</ele>
        <time>2017-06-10T17:07:59Z</time>
      </trkpt>
      <trkpt lat="44.12957" lon="3.70574">
        <ele>768.63522014699</ele>
        <time>2017-06-10T17:08:49Z</time>
      </trkpt>
      <trkpt lat="44.12957" lon="3.70552">
        <ele>769.91149582498</ele>
        <time>2017-06-10T17:09:10Z</time>
      </trkpt>
      <trkpt lat="44.12946" lon="3.70499">
        <ele>771.16237008867</ele>
        <time>2017-06-10T17:09:55Z</time>
      </trkpt>
      <trkpt lat="44.12946" lon="3.70491">
        <ele>771.16237008867</ele>
        <time>2017-06-10T17:10:00Z</time>
      </trkpt>
      <trkpt lat="44.12958" lon="3.70435">
        <ele>772.35899790615</ele>
        <time>2017-06-10T17:11:03Z</time>
      </trkpt>
      <trkpt lat="44.12961" lon="3.70425">
        <ele>772.35899790615</ele>
        <time>2017-06-10T17:11:11Z</time>
      </trkpt>
      <trkpt lat="44.12974" lon="3.70391">
        <ele>773.44602163248</ele>
        <time>2017-06-10T17:12:00Z</time>
      </trkpt>
      <trkpt lat="44.13004" lon="3.7033">
        <ele>774.34261368444</ele>
        <time>2017-06-10T17:12:57Z</time>
      </trkpt>
      <trkpt lat="44.13016" lon="3.70312">
        <ele>775.0024420462</ele>
        <time>2017-06-10T17:13:28Z</time>
      </trkpt>
      <trkpt lat="44.13043" lon="3.70286">
        <ele>775.58924545743</ele>
        <time>2017-06-10T17:13:56Z</time>
      </trkpt>
      <trkpt lat="44.13056" lon="3.70268">
        <ele>776.00577262544</ele>
        <time>2017-06-10T17:14:26Z</time>
      </trkpt>
      <trkpt lat="44.13066" lon="3.70253">
        <ele>776.4735628205</ele>
        <time>2017-06-10T17:14:43Z</time>
      </trkpt>
      <trkpt lat="44.1309" lon="3.70191">
        <ele>777.36440781265</ele>
        <time>2017-06-10T17:15:51Z</time>
      </trkpt>
      <trkpt lat="44.13093" lon="3.70179">
        <ele>778.03300815257</ele>
        <time>2017-06-10T17:16:01Z</time>
      </trkpt>
      <trkpt lat="44.13093" lon="3.70148">
        <ele>778.68871044094</ele>
        <time>2017-06-10T17:16:32Z</time>
      </trkpt>
      <trkpt lat="44.13094" lon="3.70148">
        <ele>778.68871044094</ele>
        <time>2017-06-10T17:16:32Z</time>
      </trkpt>
      <trkpt lat="44.13091" lon="3.70066">
        <ele>779.79722350981</ele>
        <time>2017-06-10T17:17:57Z</time>
      </trkpt>
      <trkpt lat="44.13097" lon="3.70056">
        <ele>782.19544399013</ele>
        <time>2017-06-10T17:20:42Z</time>
      </trkpt>
      <trkpt lat="44.13096" lon="3.70045">
        <ele>782.19544399013</ele>
        <time>2017-06-10T17:20:57Z</time>
      </trkpt>
      <trkpt lat="44.13091" lon="3.70014">
        <ele>784.64354235644</ele>
        <time>2017-06-10T17:21:34Z</time>
      </trkpt>
      <trkpt lat="44.13091" lon="3.70009">
        <ele>784.64354235644</ele>
        <time>2017-06-10T17:21:34Z</time>
      </trkpt>
      <trkpt lat="44.13091" lon="3.70008">
        <ele>784.64354235644</ele>
        <time>2017-06-10T17:21:35Z</time>
      </trkpt>
      <trkpt lat="44.1309" lon="3.69961">
        <ele>787.09550832834</ele>
        <time>2017-06-10T17:22:13Z</time>
      </trkpt>
      <trkpt lat="44.1309" lon="3.69958">
        <ele>787.09550832834</ele>
        <time>2017-06-10T17:22:15Z</time>
      </trkpt>
      <trkpt lat="44.13094" lon="3.69942">
        <ele>789.32749747665</ele>
        <time>2017-06-10T17:22:30Z</time>
      </trkpt>
      <trkpt lat="44.13107" lon="3.69899">
        <ele>791.78221465317</ele>
        <time>2017-06-10T17:23:16Z</time>
      </trkpt>
      <trkpt lat="44.13106" lon="3.69889">
        <ele>791.78221465317</ele>
        <time>2017-06-10T17:23:25Z</time>
      </trkpt>
      <trkpt lat="44.1311" lon="3.69869">
        <ele>794.21848085641</ele>
        <time>2017-06-10T17:23:53Z</time>
      </trkpt>
      <trkpt lat="44.13111" lon="3.69869">
        <ele>794.21848085641</ele>
        <time>2017-06-10T17:24:27Z</time>
      </trkpt>
      <trkpt lat="44.13088" lon="3.69844">
        <ele>797.55663838625</ele>
        <time>2017-06-10T17:25:42Z</time>
      </trkpt>
      <trkpt lat="44.13076" lon="3.69836">
        <ele>800.56794670237</ele>
        <time>2017-06-10T17:25:45Z</time>
      </trkpt>
      <trkpt lat="44.13065" lon="3.6983">
        <ele>803.38388924716</ele>
        <time>2017-06-10T17:26:02Z</time>
      </trkpt>
      <trkpt lat="44.13065" lon="3.69829">
        <ele>803.38388924716</ele>
        <time>2017-06-10T17:26:02Z</time>
      </trkpt>
      <trkpt lat="44.13047" lon="3.69808">
        <ele>805.97633688977</ele>
        <time>2017-06-10T17:26:28Z</time>
      </trkpt>
      <trkpt lat="44.13046" lon="3.69806">
        <ele>805.97633688977</ele>
        <time>2017-06-10T17:26:30Z</time>
      </trkpt>
      <trkpt lat="44.13023" lon="3.69758">
        <ele>808.72234294129</ele>
        <time>2017-06-10T17:27:15Z</time>
      </trkpt>
      <trkpt lat="44.13023" lon="3.69758">
        <ele>808.72234294129</ele>
        <time>2017-06-10T17:27:20Z</time>
      </trkpt>
      <trkpt lat="44.13022" lon="3.69754">
        <ele>808.72234294129</ele>
        <time>2017-06-10T17:27:30Z</time>
      </trkpt>
      <trkpt lat="44.1302" lon="3.69748">
        <ele>808.72234294129</ele>
        <time>2017-06-10T17:27:35Z</time>
      </trkpt>
      <trkpt lat="44.13019" lon="3.69742">
        <ele>811.80324955126</ele>
        <time>2017-06-10T17:27:40Z</time>
      </trkpt>
      <trkpt lat="44.13017" lon="3.69738">
        <ele>811.80324955126</ele>
        <time>2017-06-10T17:27:45Z</time>
      </trkpt>
      <trkpt lat="44.12994" lon="3.6967">
        <ele>814.79130575738</ele>
        <time>2017-06-10T17:28:48Z</time>
      </trkpt>
      <trkpt lat="44.12993" lon="3.69661">
        <ele>814.79130575738</ele>
        <time>2017-06-10T17:28:56Z</time>
      </trkpt>
      <trkpt lat="44.12992" lon="3.69649">
        <ele>817.45756041427</ele>
        <time>2017-06-10T17:29:05Z</time>
      </trkpt>
      <trkpt lat="44.1299" lon="3.6963">
        <ele>819.843743339</ele>
        <time>2017-06-10T17:29:32Z</time>
      </trkpt>
      <trkpt lat="44.12988" lon="3.69623">
        <ele>819.843743339</ele>
        <time>2017-06-10T17:29:32Z</time>
      </trkpt>
      <trkpt lat="44.12978" lon="3.69561">
        <ele>822.5330485943</ele>
        <time>2017-06-10T17:30:28Z</time>
      </trkpt>
      <trkpt lat="44.12973" lon="3.69552">
        <ele>822.5330485943</ele>
        <time>2017-06-10T17:30:41Z</time>
      </trkpt>
      <trkpt lat="44.12977" lon="3.69425">
        <ele>826.52908788503</ele>
        <time>2017-06-10T17:32:36Z</time>
      </trkpt>
      <trkpt lat="44.12977" lon="3.69421">
        <ele>826.52908788503</ele>
        <time>2017-06-10T17:32:36Z</time>
      </trkpt>
      <trkpt lat="44.12948" lon="3.69399">
        <ele>830.78675764262</ele>
        <time>2017-06-10T17:34:08Z</time>
      </trkpt>
      <trkpt lat="44.12946" lon="3.69399">
        <ele>830.78675764262</ele>
        <time>2017-06-10T17:34:10Z</time>
      </trkpt>
      <trkpt lat="44.12938" lon="3.69397">
        <ele>834.66772951445</ele>
        <time>2017-06-10T17:34:20Z</time>
      </trkpt>
      <trkpt lat="44.12934" lon="3.69398">
        <ele>834.66772951445</ele>
        <time>2017-06-10T17:34:25Z</time>
      </trkpt>
      <trkpt lat="44.12928" lon="3.69396">
        <ele>838.18466768087</ele>
        <time>2017-06-10T17:34:35Z</time>
      </trkpt>
      <trkpt lat="44.12923" lon="3.69399">
        <ele>838.18466768087</ele>
        <time>2017-06-10T17:34:40Z</time>
      </trkpt>
      <trkpt lat="44.12874" lon="3.6938">
        <ele>842.3549161633</ele>
        <time>2017-06-10T17:35:51Z</time>
      </trkpt>
      <trkpt lat="44.12873" lon="3.69379">
        <ele>842.3549161633</ele>
        <time>2017-06-10T17:35:51Z</time>
      </trkpt>
      <trkpt lat="44.12865" lon="3.6938">
        <ele>846.23673495028</ele>
        <time>2017-06-10T17:36:03Z</time>
      </trkpt>
      <trkpt lat="44.12862" lon="3.6938">
        <ele>846.23673495028</ele>
        <time>2017-06-10T17:36:07Z</time>
      </trkpt>
      <trkpt lat="44.12843" lon="3.69372">
        <ele>850.1111513532</ele>
        <time>2017-06-10T17:37:00Z</time>
      </trkpt>
      <trkpt lat="44.12841" lon="3.69367">
        <ele>850.1111513532</ele>
        <time>2017-06-10T17:37:13Z</time>
      </trkpt>
      <trkpt lat="44.12826" lon="3.69367">
        <ele>853.26519568902</ele>
        <time>2017-06-10T17:38:40Z</time>
      </trkpt>
      <trkpt lat="44.12828" lon="3.69369">
        <ele>853.26519568902</ele>
        <time>2017-06-10T17:38:55Z</time>
      </trkpt>
      <trkpt lat="44.12825" lon="3.69367">
        <ele>853.26519568902</ele>
        <time>2017-06-10T17:39:00Z</time>
      </trkpt>
      <trkpt lat="44.12815" lon="3.69361">
        <ele>856.50649845359</ele>
        <time>2017-06-10T17:39:21Z</time>
      </trkpt>
      <trkpt lat="44.12814" lon="3.6936">
        <ele>856.50649845359</ele>
        <time>2017-06-10T17:39:22Z</time>
      </trkpt>
      <trkpt lat="44.12717" lon="3.6935">
        <ele>861.23093940034</ele>
        <time>2017-06-10T17:41:05Z</time>
      </trkpt>
      <trkpt lat="44.12717" lon="3.69351">
        <ele>861.23093940034</ele>
        <time>2017-06-10T17:41:10Z</time>
      </trkpt>
      <trkpt lat="44.12695" lon="3.69346">
        <ele>865.83104119185</ele>
        <time>2017-06-10T17:41:42Z</time>
      </trkpt>
      <trkpt lat="44.12648" lon="3.69335">
        <ele>870.13790474218</ele>
        <time>2017-06-10T17:42:54Z</time>
      </trkpt>
      <trkpt lat="44.12642" lon="3.69334">
        <ele>870.13790474218</ele>
        <time>2017-06-10T17:42:55Z</time>
      </trkpt>
      <trkpt lat="44.12613" lon="3.69325">
        <ele>874.29941588676</ele>
        <time>2017-06-10T17:43:23Z</time>
      </trkpt>
      <trkpt lat="44.12513" lon="3.69236">
        <ele>879.37645802443</ele>
        <time>2017-06-10T17:45:29Z</time>
      </trkpt>
      <trkpt lat="44.12509" lon="3.69228">
        <ele>879.37645802443</ele>
        <time>2017-06-10T17:45:32Z</time>
      </trkpt>
      <trkpt lat="44.125" lon="3.69214">
        <ele>884.16886892468</ele>
        <time>2017-06-10T17:45:52Z</time>
      </trkpt>
      <trkpt lat="44.12488" lon="3.69196">
        <ele>888.66351029578</ele>
        <time>2017-06-10T17:45:59Z</time>
      </trkpt>
      <trkpt lat="44.12488" lon="3.69195">
        <ele>888.66351029578</ele>
        <time>2017-06-10T17:46:04Z</time>
      </trkpt>
      <trkpt lat="44.12483" lon="3.69187">
        <ele>888.66351029578</ele>
        <time>2017-06-10T17:46:07Z</time>
      </trkpt>
      <trkpt lat="44.12471" lon="3.69169">
        <ele>893.13742469131</ele>
        <time>2017-06-10T17:46:28Z</time>
      </trkpt>
      <trkpt lat="44.12468" lon="3.69162">
        <ele>893.13742469131</ele>
        <time>2017-06-10T17:46:33Z</time>
      </trkpt>
      <trkpt lat="44.12465" lon="3.69153">
        <ele>897.52990070537</ele>
        <time>2017-06-10T17:46:55Z</time>
      </trkpt>
      <trkpt lat="44.12462" lon="3.6915">
        <ele>897.52990070537</ele>
        <time>2017-06-10T17:47:12Z</time>
      </trkpt>
      <trkpt lat="44.12462" lon="3.6915">
        <ele>897.52990070537</ele>
        <time>2017-06-10T17:47:18Z</time>
      </trkpt>
      <trkpt lat="44.12462" lon="3.69149">
        <ele>897.52990070537</ele>
        <time>2017-06-10T17:47:20Z</time>
      </trkpt>
      <trkpt lat="44.12435" lon="3.69142">
        <ele>901.82824890429</ele>
        <time>2017-06-10T17:49:33Z</time>
      </trkpt>
      <trkpt lat="44.12406" lon="3.69136">
        <ele>905.66058625236</ele>
        <time>2017-06-10T17:50:18Z</time>
      </trkpt>
      <trkpt lat="44.12399" lon="3.69134">
        <ele>905.66058625236</ele>
        <time>2017-06-10T17:50:18Z</time>
      </trkpt>
      <trkpt lat="44.12383" lon="3.69142">
        <ele>909.11629265619</ele>
        <time>2017-06-10T17:51:00Z</time>
      </trkpt>
      <trkpt lat="44.12355" lon="3.69158">
        <ele>912.07742380642</ele>
        <time>2017-06-10T17:51:18Z</time>
      </trkpt>
      <trkpt lat="44.12351" lon="3.69159">
        <ele>912.07742380642</ele>
        <time>2017-06-10T17:51:25Z</time>
      </trkpt>
      <trkpt lat="44.12351" lon="3.6916">
        <ele>912.07742380642</ele>
        <time>2017-06-10T17:51:32Z</time>
      </trkpt>
      <trkpt lat="44.12345" lon="3.69157">
        <ele>914.58032404626</ele>
        <time>2017-06-10T17:51:40Z</time>
      </trkpt>
      <trkpt lat="44.12341" lon="3.69155">
        <ele>914.58032404626</ele>
        <time>2017-06-10T17:51:45Z</time>
      </trkpt>
      <trkpt lat="44.12337" lon="3.69154">
        <ele>914.58032404626</ele>
        <time>2017-06-10T17:52:00Z</time>
      </trkpt>
      <trkpt lat="44.1231" lon="3.69149">
        <ele>916.89072168991</ele>
        <time>2017-06-10T17:53:03Z</time>
      </trkpt>
      <trkpt lat="44.12309" lon="3.69149">
        <ele>916.89072168991</ele>
        <time>2017-06-10T17:53:04Z</time>
      </trkpt>
      <trkpt lat="44.12277" lon="3.69151">
        <ele>919.41408775014</ele>
        <time>2017-06-10T17:54:47Z</time>
      </trkpt>
      <trkpt lat="44.12259" lon="3.69148">
        <ele>921.67485141516</ele>
        <time>2017-06-10T17:54:53Z</time>
      </trkpt>
      <trkpt lat="44.12255" lon="3.69148">
        <ele>921.67485141516</ele>
        <time>2017-06-10T17:54:55Z</time>
      </trkpt>
      <trkpt lat="44.12244" lon="3.69145">
        <ele>923.85321774388</ele>
        <time>2017-06-10T17:55:24Z</time>
      </trkpt>
      <trkpt lat="44.12239" lon="3.69144">
        <ele>923.85321774388</ele>
        <time>2017-06-10T17:55:41Z</time>
      </trkpt>
      <trkpt lat="44.12232" lon="3.69144">
        <ele>926.36163816617</ele>
        <time>2017-06-10T17:56:00Z</time>
      </trkpt>
      <trkpt lat="44.12228" lon="3.69149">
        <ele>965.2</ele>
        <time>2017-06-10T18:07:19Z</time>
      </trkpt>
      <trkpt lat="44.12227" lon="3.69147">
        <ele>965.2</ele>
        <time>2017-06-10T18:07:24Z</time>
      </trkpt>
      <trkpt lat="44.12234" lon="3.69148">
        <ele>946.8314843024</ele>
        <time>2017-06-10T18:10:29Z</time>
      </trkpt>
      <trkpt lat="44.12238" lon="3.69148">
        <ele>946.8314843024</ele>
        <time>2017-06-10T18:10:34Z</time>
      </trkpt>
      <trkpt lat="44.12242" lon="3.69148">
        <ele>946.8314843024</ele>
        <time>2017-06-10T18:10:44Z</time>
      </trkpt>
      <trkpt lat="44.12243" lon="3.69144">
        <ele>951.40881334363</ele>
        <time>2017-06-10T18:10:49Z</time>
      </trkpt>
      <trkpt lat="44.12246" lon="3.6914">
        <ele>951.40881334363</ele>
        <time>2017-06-10T18:10:59Z</time>
      </trkpt>
      <trkpt lat="44.12248" lon="3.69139">
        <ele>951.40881334363</ele>
        <time>2017-06-10T18:11:04Z</time>
      </trkpt>
      <trkpt lat="44.12252" lon="3.69137">
        <ele>955.61539544455</ele>
        <time>2017-06-10T18:11:14Z</time>
      </trkpt>
      <trkpt lat="44.12259" lon="3.69141">
        <ele>955.61539544455</ele>
        <time>2017-06-10T18:11:29Z</time>
      </trkpt>
      <trkpt lat="44.12261" lon="3.69141">
        <ele>959.6582452322</ele>
        <time>2017-06-10T18:11:34Z</time>
      </trkpt>
      <trkpt lat="44.12266" lon="3.69142">
        <ele>959.6582452322</ele>
        <time>2017-06-10T18:11:44Z</time>
      </trkpt>
      <trkpt lat="44.1227" lon="3.69144">
        <ele>963.50086743551</ele>
        <time>2017-06-10T18:11:49Z</time>
      </trkpt>
      <trkpt lat="44.12279" lon="3.69145">
        <ele>966.75841339591</ele>
        <time>2017-06-10T18:12:04Z</time>
      </trkpt>
      <trkpt lat="44.12283" lon="3.69145">
        <ele>966.75841339591</ele>
        <time>2017-06-10T18:12:09Z</time>
      </trkpt>
      <trkpt lat="44.12289" lon="3.69146">
        <ele>969.20639725776</ele>
        <time>2017-06-10T18:12:19Z</time>
      </trkpt>
      <trkpt lat="44.12292" lon="3.69147">
        <ele>969.20639725776</ele>
        <time>2017-06-10T18:12:24Z</time>
      </trkpt>
      <trkpt lat="44.12298" lon="3.69147">
        <ele>969.20639725776</ele>
        <time>2017-06-10T18:12:34Z</time>
      </trkpt>
      <trkpt lat="44.12302" lon="3.69147">
        <ele>970.39164731154</ele>
        <time>2017-06-10T18:12:39Z</time>
      </trkpt>
      <trkpt lat="44.12307" lon="3.69148">
        <ele>970.39164731154</ele>
        <time>2017-06-10T18:12:49Z</time>
      </trkpt>
      <trkpt lat="44.1231" lon="3.69147">
        <ele>970.39164731154</ele>
        <time>2017-06-10T18:12:54Z</time>
      </trkpt>
      <trkpt lat="44.12319" lon="3.69147">
        <ele>969.69698591691</ele>
        <time>2017-06-10T18:13:04Z</time>
      </trkpt>
      <trkpt lat="44.12321" lon="3.69146">
        <ele>969.69698591691</ele>
        <time>2017-06-10T18:13:09Z</time>
      </trkpt>
      <trkpt lat="44.12328" lon="3.69148">
        <ele>967.42342777494</ele>
        <time>2017-06-10T18:13:19Z</time>
      </trkpt>
      <trkpt lat="44.12332" lon="3.69152">
        <ele>967.42342777494</ele>
        <time>2017-06-10T18:13:24Z</time>
      </trkpt>
      <trkpt lat="44.12342" lon="3.69159">
        <ele>964.18681579976</ele>
        <time>2017-06-10T18:13:34Z</time>
      </trkpt>
      <trkpt lat="44.12343" lon="3.69157">
        <ele>964.18681579976</ele>
        <time>2017-06-10T18:13:39Z</time>
      </trkpt>
      <trkpt lat="44.12351" lon="3.69161">
        <ele>959.97755220026</ele>
        <time>2017-06-10T18:14:59Z</time>
      </trkpt>
      <trkpt lat="44.12356" lon="3.69158">
        <ele>959.97755220026</ele>
        <time>2017-06-10T18:15:04Z</time>
      </trkpt>
      <trkpt lat="44.1237" lon="3.69149">
        <ele>955.71776685186</ele>
        <time>2017-06-10T18:15:14Z</time>
      </trkpt>
      <trkpt lat="44.12373" lon="3.69144">
        <ele>955.71776685186</ele>
        <time>2017-06-10T18:15:19Z</time>
      </trkpt>
      <trkpt lat="44.12375" lon="3.69145">
        <ele>955.71776685186</ele>
        <time>2017-06-10T18:15:24Z</time>
      </trkpt>
      <trkpt lat="44.12378" lon="3.69144">
        <ele>951.48713694328</ele>
        <time>2017-06-10T18:15:34Z</time>
      </trkpt>
      <trkpt lat="44.12383" lon="3.6914">
        <ele>951.48713694328</ele>
        <time>2017-06-10T18:15:44Z</time>
      </trkpt>
      <trkpt lat="44.12394" lon="3.69135">
        <ele>947.27303881513</ele>
        <time>2017-06-10T18:15:59Z</time>
      </trkpt>
      <trkpt lat="44.12401" lon="3.69135">
        <ele>947.27303881513</ele>
        <time>2017-06-10T18:16:04Z</time>
      </trkpt>
      <trkpt lat="44.12412" lon="3.69137">
        <ele>943.35087059226</ele>
        <time>2017-06-10T18:16:14Z</time>
      </trkpt>
      <trkpt lat="44.12419" lon="3.69139">
        <ele>943.35087059226</ele>
        <time>2017-06-10T18:16:19Z</time>
      </trkpt>
      <trkpt lat="44.1243" lon="3.69143">
        <ele>939.55859114733</ele>
        <time>2017-06-10T18:16:29Z</time>
      </trkpt>
      <trkpt lat="44.12436" lon="3.69144">
        <ele>939.55859114733</ele>
        <time>2017-06-10T18:16:34Z</time>
      </trkpt>
      <trkpt lat="44.12453" lon="3.69149">
        <ele>936.09391088329</ele>
        <time>2017-06-10T18:16:49Z</time>
      </trkpt>
      <trkpt lat="44.1246" lon="3.69157">
        <ele>936.09391088329</ele>
        <time>2017-06-10T18:16:54Z</time>
      </trkpt>
      <trkpt lat="44.12467" lon="3.69164">
        <ele>933.13284857328</ele>
        <time>2017-06-10T18:17:04Z</time>
      </trkpt>
      <trkpt lat="44.12472" lon="3.69172">
        <ele>933.13284857328</ele>
        <time>2017-06-10T18:17:09Z</time>
      </trkpt>
      <trkpt lat="44.12479" lon="3.69185">
        <ele>930.64390876398</ele>
        <time>2017-06-10T18:17:19Z</time>
      </trkpt>
      <trkpt lat="44.12483" lon="3.69189">
        <ele>930.64390876398</ele>
        <time>2017-06-10T18:17:24Z</time>
      </trkpt>
      <trkpt lat="44.1249" lon="3.69201">
        <ele>928.48169697264</ele>
        <time>2017-06-10T18:17:34Z</time>
      </trkpt>
      <trkpt lat="44.12493" lon="3.69206">
        <ele>928.48169697264</ele>
        <time>2017-06-10T18:17:39Z</time>
      </trkpt>
      <trkpt lat="44.125" lon="3.69213">
        <ele>926.52839805539</ele>
        <time>2017-06-10T18:17:49Z</time>
      </trkpt>
      <trkpt lat="44.12502" lon="3.69217">
        <ele>926.52839805539</ele>
        <time>2017-06-10T18:17:54Z</time>
      </trkpt>
      <trkpt lat="44.12511" lon="3.69227">
        <ele>924.82707572617</ele>
        <time>2017-06-10T18:18:04Z</time>
      </trkpt>
      <trkpt lat="44.12516" lon="3.69234">
        <ele>924.82707572617</ele>
        <time>2017-06-10T18:18:09Z</time>
      </trkpt>
      <trkpt lat="44.12521" lon="3.69244">
        <ele>923.20565497656</ele>
        <time>2017-06-10T18:18:19Z</time>
      </trkpt>
      <trkpt lat="44.12524" lon="3.69246">
        <ele>923.20565497656</ele>
        <time>2017-06-10T18:18:24Z</time>
      </trkpt>
      <trkpt lat="44.12532" lon="3.69263">
        <ele>921.55518598983</ele>
        <time>2017-06-10T18:18:39Z</time>
      </trkpt>
      <trkpt lat="44.12535" lon="3.69268">
        <ele>921.55518598983</ele>
        <time>2017-06-10T18:18:44Z</time>
      </trkpt>
      <trkpt lat="44.12541" lon="3.69276">
        <ele>919.9510740424</ele>
        <time>2017-06-10T18:18:54Z</time>
      </trkpt>
      <trkpt lat="44.12544" lon="3.69282">
        <ele>919.9510740424</ele>
        <time>2017-06-10T18:18:59Z</time>
      </trkpt>
      <trkpt lat="44.12551" lon="3.69292">
        <ele>918.25974559878</ele>
        <time>2017-06-10T18:19:09Z</time>
      </trkpt>
      <trkpt lat="44.12555" lon="3.69295">
        <ele>918.25974559878</ele>
        <time>2017-06-10T18:19:14Z</time>
      </trkpt>
      <trkpt lat="44.12563" lon="3.69305">
        <ele>916.51649196745</ele>
        <time>2017-06-10T18:19:24Z</time>
      </trkpt>
      <trkpt lat="44.12567" lon="3.69308">
        <ele>916.51649196745</ele>
        <time>2017-06-10T18:19:29Z</time>
      </trkpt>
      <trkpt lat="44.12573" lon="3.69311">
        <ele>914.66823977578</ele>
        <time>2017-06-10T18:19:39Z</time>
      </trkpt>
      <trkpt lat="44.12577" lon="3.69312">
        <ele>914.66823977578</ele>
        <time>2017-06-10T18:19:44Z</time>
      </trkpt>
      <trkpt lat="44.12583" lon="3.69315">
        <ele>912.72221797913</ele>
        <time>2017-06-10T18:19:54Z</time>
      </trkpt>
      <trkpt lat="44.12588" lon="3.69321">
        <ele>912.72221797913</ele>
        <time>2017-06-10T18:19:59Z</time>
      </trkpt>
      <trkpt lat="44.12598" lon="3.69325">
        <ele>910.51793469357</ele>
        <time>2017-06-10T18:20:09Z</time>
      </trkpt>
      <trkpt lat="44.12603" lon="3.69326">
        <ele>910.51793469357</ele>
        <time>2017-06-10T18:20:14Z</time>
      </trkpt>
      <trkpt lat="44.12613" lon="3.69329">
        <ele>907.76876346171</ele>
        <time>2017-06-10T18:20:29Z</time>
      </trkpt>
      <trkpt lat="44.12617" lon="3.6933">
        <ele>907.76876346171</ele>
        <time>2017-06-10T18:20:34Z</time>
      </trkpt>
      <trkpt lat="44.12625" lon="3.6933">
        <ele>904.51392565114</ele>
        <time>2017-06-10T18:20:44Z</time>
      </trkpt>
      <trkpt lat="44.12629" lon="3.6933">
        <ele>904.51392565114</ele>
        <time>2017-06-10T18:20:49Z</time>
      </trkpt>
      <trkpt lat="44.12638" lon="3.69333">
        <ele>901.02548440823</ele>
        <time>2017-06-10T18:20:59Z</time>
      </trkpt>
      <trkpt lat="44.12641" lon="3.69337">
        <ele>901.02548440823</ele>
        <time>2017-06-10T18:21:04Z</time>
      </trkpt>
      <trkpt lat="44.12648" lon="3.6934">
        <ele>897.60027490519</ele>
        <time>2017-06-10T18:21:14Z</time>
      </trkpt>
      <trkpt lat="44.12652" lon="3.69341">
        <ele>897.60027490519</ele>
        <time>2017-06-10T18:21:19Z</time>
      </trkpt>
      <trkpt lat="44.12661" lon="3.69344">
        <ele>894.15440000308</ele>
        <time>2017-06-10T18:21:29Z</time>
      </trkpt>
      <trkpt lat="44.12666" lon="3.69345">
        <ele>894.15440000308</ele>
        <time>2017-06-10T18:21:34Z</time>
      </trkpt>
      <trkpt lat="44.12677" lon="3.69349">
        <ele>890.8638750258</ele>
        <time>2017-06-10T18:21:44Z</time>
      </trkpt>
      <trkpt lat="44.12682" lon="3.6935">
        <ele>890.8638750258</ele>
        <time>2017-06-10T18:21:49Z</time>
      </trkpt>
      <trkpt lat="44.1269" lon="3.6935">
        <ele>887.74055846306</ele>
        <time>2017-06-10T18:21:59Z</time>
      </trkpt>
      <trkpt lat="44.12696" lon="3.6935">
        <ele>887.74055846306</ele>
        <time>2017-06-10T18:22:04Z</time>
      </trkpt>
      <trkpt lat="44.12706" lon="3.69351">
        <ele>884.21122196143</ele>
        <time>2017-06-10T18:22:19Z</time>
      </trkpt>
      <trkpt lat="44.12711" lon="3.6935">
        <ele>884.21122196143</ele>
        <time>2017-06-10T18:22:24Z</time>
      </trkpt>
      <trkpt lat="44.1272" lon="3.69351">
        <ele>880.50916787932</ele>
        <time>2017-06-10T18:22:34Z</time>
      </trkpt>
      <trkpt lat="44.12725" lon="3.69352">
        <ele>880.50916787932</ele>
        <time>2017-06-10T18:22:39Z</time>
      </trkpt>
      <trkpt lat="44.12734" lon="3.6935">
        <ele>876.8428031454</ele>
        <time>2017-06-10T18:22:49Z</time>
      </trkpt>
      <trkpt lat="44.12737" lon="3.69354">
        <ele>876.8428031454</ele>
        <time>2017-06-10T18:22:54Z</time>
      </trkpt>
      <trkpt lat="44.12737" lon="3.69358">
        <ele>876.8428031454</ele>
        <time>2017-06-10T18:23:04Z</time>
      </trkpt>
      <trkpt lat="44.1274" lon="3.69356">
        <ele>872.88579187259</ele>
        <time>2017-06-10T18:23:24Z</time>
      </trkpt>
      <trkpt lat="44.12758" lon="3.69357">
        <ele>869.54697249017</ele>
        <time>2017-06-10T18:23:39Z</time>
      </trkpt>
      <trkpt lat="44.12763" lon="3.69358">
        <ele>869.54697249017</ele>
        <time>2017-06-10T18:23:44Z</time>
      </trkpt>
      <trkpt lat="44.12772" lon="3.6936">
        <ele>866.65150506031</ele>
        <time>2017-06-10T18:23:54Z</time>
      </trkpt>
      <trkpt lat="44.12778" lon="3.69361">
        <ele>866.65150506031</ele>
        <time>2017-06-10T18:23:59Z</time>
      </trkpt>
      <trkpt lat="44.12789" lon="3.69361">
        <ele>864.28312909526</ele>
        <time>2017-06-10T18:24:09Z</time>
      </trkpt>
      <trkpt lat="44.12793" lon="3.69362">
        <ele>864.28312909526</ele>
        <time>2017-06-10T18:24:16Z</time>
      </trkpt>
      <trkpt lat="44.12801" lon="3.69362">
        <ele>862.26383283994</ele>
        <time>2017-06-10T18:24:24Z</time>
      </trkpt>
      <trkpt lat="44.12825" lon="3.69372">
        <ele>860.66283456334</ele>
        <time>2017-06-10T18:24:49Z</time>
      </trkpt>
      <trkpt lat="44.12907" lon="3.69394">
        <ele>859.27194140299</ele>
        <time>2017-06-10T18:26:15Z</time>
      </trkpt>
      <trkpt lat="44.12942" lon="3.6941">
        <ele>857.9400266187</ele>
        <time>2017-06-10T18:26:49Z</time>
      </trkpt>
      <trkpt lat="44.12979" lon="3.6943">
        <ele>855.5761996286</ele>
        <time>2017-06-10T18:27:30Z</time>
      </trkpt>
      <trkpt lat="44.12978" lon="3.69434">
        <ele>855.5761996286</ele>
        <time>2017-06-10T18:27:31Z</time>
      </trkpt>
      <trkpt lat="44.1297" lon="3.69497">
        <ele>851.71533355765</ele>
        <time>2017-06-10T18:28:22Z</time>
      </trkpt>
      <trkpt lat="44.12969" lon="3.69499">
        <ele>851.71533355765</ele>
        <time>2017-06-10T18:28:24Z</time>
      </trkpt>
      <trkpt lat="44.1298" lon="3.69562">
        <ele>847.3083412025</ele>
        <time>2017-06-10T18:29:19Z</time>
      </trkpt>
      <trkpt lat="44.12988" lon="3.69596">
        <ele>842.69427966268</ele>
        <time>2017-06-10T18:30:01Z</time>
      </trkpt>
      <trkpt lat="44.12992" lon="3.69618">
        <ele>838.76003409791</ele>
        <time>2017-06-10T18:30:29Z</time>
      </trkpt>
      <trkpt lat="44.12995" lon="3.69637">
        <ele>835.0980278284</ele>
        <time>2017-06-10T18:31:00Z</time>
      </trkpt>
      <trkpt lat="44.12998" lon="3.69663">
        <ele>831.85829419068</ele>
        <time>2017-06-10T18:31:11Z</time>
      </trkpt>
      <trkpt lat="44.13003" lon="3.69683">
        <ele>828.95106552389</ele>
        <time>2017-06-10T18:31:27Z</time>
      </trkpt>
      <trkpt lat="44.1303" lon="3.69768">
        <ele>825.73741906471</ele>
        <time>2017-06-10T18:33:25Z</time>
      </trkpt>
      <trkpt lat="44.13035" lon="3.69777">
        <ele>825.73741906471</ele>
        <time>2017-06-10T18:33:25Z</time>
      </trkpt>
      <trkpt lat="44.1307" lon="3.69837">
        <ele>822.45549316416</ele>
        <time>2017-06-10T18:34:27Z</time>
      </trkpt>
      <trkpt lat="44.13105" lon="3.69861">
        <ele>819.29372463124</ele>
        <time>2017-06-10T18:35:02Z</time>
      </trkpt>
      <trkpt lat="44.13107" lon="3.69897">
        <ele>815.56030920883</ele>
        <time>2017-06-10T18:35:52Z</time>
      </trkpt>
      <trkpt lat="44.13102" lon="3.69916">
        <ele>812.12381104671</ele>
        <time>2017-06-10T18:35:52Z</time>
      </trkpt>
      <trkpt lat="44.131" lon="3.69937">
        <ele>808.85979201227</ele>
        <time>2017-06-10T18:36:09Z</time>
      </trkpt>
      <trkpt lat="44.13098" lon="3.69946">
        <ele>808.85979201227</ele>
        <time>2017-06-10T18:36:16Z</time>
      </trkpt>
      <trkpt lat="44.13097" lon="3.69947">
        <ele>808.85979201227</ele>
        <time>2017-06-10T18:36:28Z</time>
      </trkpt>
      <trkpt lat="44.13092" lon="3.6996">
        <ele>805.50582459926</ele>
        <time>2017-06-10T18:36:29Z</time>
      </trkpt>
      <trkpt lat="44.13091" lon="3.69966">
        <ele>805.50582459926</ele>
        <time>2017-06-10T18:36:34Z</time>
      </trkpt>
      <trkpt lat="44.13088" lon="3.69993">
        <ele>802.08703721577</ele>
        <time>2017-06-10T18:37:05Z</time>
      </trkpt>
      <trkpt lat="44.13088" lon="3.70015">
        <ele>798.86187840628</ele>
        <time>2017-06-10T18:37:21Z</time>
      </trkpt>
      <trkpt lat="44.13095" lon="3.70068">
        <ele>795.09794019559</ele>
        <time>2017-06-10T18:38:17Z</time>
      </trkpt>
      <trkpt lat="44.13097" lon="3.70095">
        <ele>791.42805433801</ele>
        <time>2017-06-10T18:39:00Z</time>
      </trkpt>
      <trkpt lat="44.13095" lon="3.70128">
        <ele>787.87728549827</ele>
        <time>2017-06-10T18:39:16Z</time>
      </trkpt>
      <trkpt lat="44.13094" lon="3.70132">
        <ele>787.87728549827</ele>
        <time>2017-06-10T18:39:17Z</time>
      </trkpt>
      <trkpt lat="44.13075" lon="3.70232">
        <ele>783.7971237853</ele>
        <time>2017-06-10T18:40:39Z</time>
      </trkpt>
      <trkpt lat="44.13061" lon="3.7025">
        <ele>779.87427544548</ele>
        <time>2017-06-10T18:41:07Z</time>
      </trkpt>
      <trkpt lat="44.12997" lon="3.70324">
        <ele>775.32925502932</ele>
        <time>2017-06-10T18:42:30Z</time>
      </trkpt>
      <trkpt lat="44.12948" lon="3.70453">
        <ele>770.54950830201</ele>
        <time>2017-06-10T18:44:16Z</time>
      </trkpt>
      <trkpt lat="44.12945" lon="3.70487">
        <ele>766.22583479669</ele>
        <time>2017-06-10T18:44:35Z</time>
      </trkpt>
      <trkpt lat="44.12954" lon="3.70525">
        <ele>762.08109271311</ele>
        <time>2017-06-10T18:44:59Z</time>
      </trkpt>
      <trkpt lat="44.12948" lon="3.70603">
        <ele>757.38157273972</ele>
        <time>2017-06-10T18:46:01Z</time>
      </trkpt>
      <trkpt lat="44.12946" lon="3.70611">
        <ele>757.38157273972</ele>
        <time>2017-06-10T18:46:01Z</time>
      </trkpt>
      <trkpt lat="44.12943" lon="3.70625">
        <ele>752.95529941744</ele>
        <time>2017-06-10T18:46:16Z</time>
      </trkpt>
      <trkpt lat="44.1294" lon="3.7063">
        <ele>752.95529941744</ele>
        <time>2017-06-10T18:46:17Z</time>
      </trkpt>
      <trkpt lat="44.12931" lon="3.70662">
        <ele>749.0169091654</ele>
        <time>2017-06-10T18:46:51Z</time>
      </trkpt>
      <trkpt lat="44.12926" lon="3.70688">
        <ele>745.30127821137</ele>
        <time>2017-06-10T18:47:08Z</time>
      </trkpt>
      <trkpt lat="44.1292" lon="3.70722">
        <ele>741.95246767738</ele>
        <time>2017-06-10T18:47:24Z</time>
      </trkpt>
      <trkpt lat="44.12919" lon="3.70723">
        <ele>741.95246767738</ele>
        <time>2017-06-10T18:47:25Z</time>
      </trkpt>
      <trkpt lat="44.12916" lon="3.70745">
        <ele>738.97279119337</ele>
        <time>2017-06-10T18:47:46Z</time>
      </trkpt>
      <trkpt lat="44.12906" lon="3.70789">
        <ele>735.81515696392</ele>
        <time>2017-06-10T18:48:24Z</time>
      </trkpt>
      <trkpt lat="44.12904" lon="3.708">
        <ele>735.81515696392</ele>
        <time>2017-06-10T18:48:24Z</time>
      </trkpt>
      <trkpt lat="44.12903" lon="3.70816">
        <ele>732.82452048088</ele>
        <time>2017-06-10T18:48:33Z</time>
      </trkpt>
      <trkpt lat="44.12904" lon="3.70817">
        <ele>732.82452048088</ele>
        <time>2017-06-10T18:48:34Z</time>
      </trkpt>
      <trkpt lat="44.12951" lon="3.70896">
        <ele>729.41114180864</ele>
        <time>2017-06-10T18:49:49Z</time>
      </trkpt>
      <trkpt lat="44.12951" lon="3.70898">
        <ele>729.41114180864</ele>
        <time>2017-06-10T18:49:49Z</time>
      </trkpt>
      <trkpt lat="44.12954" lon="3.70914">
        <ele>726.34204043369</ele>
        <time>2017-06-10T18:50:11Z</time>
      </trkpt>
      <trkpt lat="44.12947" lon="3.70933">
        <ele>723.53354504877</ele>
        <time>2017-06-10T18:50:26Z</time>
      </trkpt>
      <trkpt lat="44.12941" lon="3.70915">
        <ele>721.08036570758</ele>
        <time>2017-06-10T18:50:46Z</time>
      </trkpt>
      <trkpt lat="44.12933" lon="3.7091">
        <ele>721.08036570758</ele>
        <time>2017-06-10T18:51:00Z</time>
      </trkpt>
      <trkpt lat="44.12902" lon="3.70888">
        <ele>718.83850479692</ele>
        <time>2017-06-10T18:51:37Z</time>
      </trkpt>
      <trkpt lat="44.12882" lon="3.70884">
        <ele>716.96224590641</ele>
        <time>2017-06-10T18:51:50Z</time>
      </trkpt>
      <trkpt lat="44.12881" lon="3.70884">
        <ele>716.96224590641</ele>
        <time>2017-06-10T18:51:51Z</time>
      </trkpt>
      <trkpt lat="44.12872" lon="3.70888">
        <ele>715.42044467436</ele>
        <time>2017-06-10T18:51:58Z</time>
      </trkpt>
      <trkpt lat="44.12855" lon="3.70886">
        <ele>714.22651884366</ele>
        <time>2017-06-10T18:52:24Z</time>
      </trkpt>
      <trkpt lat="44.12847" lon="3.70887">
        <ele>714.22651884366</ele>
        <time>2017-06-10T18:52:24Z</time>
      </trkpt>
      <trkpt lat="44.12839" lon="3.70886">
        <ele>713.20443405971</ele>
        <time>2017-06-10T18:52:35Z</time>
      </trkpt>
      <trkpt lat="44.12837" lon="3.70882">
        <ele>713.20443405971</ele>
        <time>2017-06-10T18:52:49Z</time>
      </trkpt>
      <trkpt lat="44.12836" lon="3.70864">
        <ele>712.24825187704</ele>
        <time>2017-06-10T18:52:56Z</time>
      </trkpt>
      <trkpt lat="44.12838" lon="3.70849">
        <ele>711.46153306731</ele>
        <time>2017-06-10T18:53:09Z</time>
      </trkpt>
      <trkpt lat="44.12835" lon="3.7079">
        <ele>710.31962861571</ele>
        <time>2017-06-10T18:53:58Z</time>
      </trkpt>
      <trkpt lat="44.1283" lon="3.70774">
        <ele>709.08744224882</ele>
        <time>2017-06-10T18:54:13Z</time>
      </trkpt>
      <trkpt lat="44.12826" lon="3.70771">
        <ele>709.08744224882</ele>
        <time>2017-06-10T18:54:13Z</time>
      </trkpt>
      <trkpt lat="44.12807" lon="3.70757">
        <ele>707.59248650876</ele>
        <time>2017-06-10T18:54:46Z</time>
      </trkpt>
      <trkpt lat="44.12795" lon="3.70756">
        <ele>706.23831257885</ele>
        <time>2017-06-10T18:54:49Z</time>
      </trkpt>
      <trkpt lat="44.12786" lon="3.70752">
        <ele>704.86483813844</ele>
        <time>2017-06-10T18:54:59Z</time>
      </trkpt>
      <trkpt lat="44.12786" lon="3.70751">
        <ele>704.86483813844</ele>
        <time>2017-06-10T18:55:04Z</time>
      </trkpt>
      <trkpt lat="44.1278" lon="3.70748">
        <ele>704.86483813844</ele>
        <time>2017-06-10T18:55:14Z</time>
      </trkpt>
      <trkpt lat="44.12768" lon="3.70746">
        <ele>703.64124392068</ele>
        <time>2017-06-10T18:55:29Z</time>
      </trkpt>
      <trkpt lat="44.12763" lon="3.70746">
        <ele>703.64124392068</ele>
        <time>2017-06-10T18:55:34Z</time>
      </trkpt>
      <trkpt lat="44.12754" lon="3.70746">
        <ele>702.57972493399</ele>
        <time>2017-06-10T18:55:44Z</time>
      </trkpt>
      <trkpt lat="44.12749" lon="3.70749">
        <ele>702.57972493399</ele>
        <time>2017-06-10T18:55:49Z</time>
      </trkpt>
      <trkpt lat="44.12726" lon="3.70744">
        <ele>701.37391445004</ele>
        <time>2017-06-10T18:56:22Z</time>
      </trkpt>
      <trkpt lat="44.12721" lon="3.70758">
        <ele>699.98573416625</ele>
        <time>2017-06-10T18:56:51Z</time>
      </trkpt>
      <trkpt lat="44.12737" lon="3.70777">
        <ele>698.52480109107</ele>
        <time>2017-06-10T18:57:19Z</time>
      </trkpt>
      <trkpt lat="44.12706" lon="3.70807">
        <ele>695.3334128605</ele>
        <time>2017-06-10T18:59:25Z</time>
      </trkpt>
      <trkpt lat="44.12699" lon="3.70808">
        <ele>695.3334128605</ele>
        <time>2017-06-10T18:59:25Z</time>
      </trkpt>
      <trkpt lat="44.12692" lon="3.70817">
        <ele>692.1981077913</ele>
        <time>2017-06-10T18:59:33Z</time>
      </trkpt>
      <trkpt lat="44.12692" lon="3.70817">
        <ele>692.1981077913</ele>
        <time>2017-06-10T18:59:41Z</time>
      </trkpt>
      <trkpt lat="44.12687" lon="3.70821">
        <ele>692.1981077913</ele>
        <time>2017-06-10T18:59:41Z</time>
      </trkpt>
      <trkpt lat="44.12671" lon="3.70828">
        <ele>688.91341330124</ele>
        <time>2017-06-10T19:00:03Z</time>
      </trkpt>
      <trkpt lat="44.12671" lon="3.70828">
        <ele>688.91341330124</ele>
        <time>2017-06-10T19:00:06Z</time>
      </trkpt>
      <trkpt lat="44.12653" lon="3.70843">
        <ele>685.34721374152</ele>
        <time>2017-06-10T19:00:29Z</time>
      </trkpt>
      <trkpt lat="44.1265" lon="3.70844">
        <ele>685.34721374152</ele>
        <time>2017-06-10T19:00:34Z</time>
      </trkpt>
      <trkpt lat="44.12627" lon="3.70866">
        <ele>681.59432632841</ele>
        <time>2017-06-10T19:01:08Z</time>
      </trkpt>
      <trkpt lat="44.12627" lon="3.70867">
        <ele>681.59432632841</ele>
        <time>2017-06-10T19:01:09Z</time>
      </trkpt>
      <trkpt lat="44.12599" lon="3.70903">
        <ele>677.52690243723</ele>
        <time>2017-06-10T19:01:59Z</time>
      </trkpt>
      <trkpt lat="44.12564" lon="3.70946">
        <ele>672.99863122837</ele>
        <time>2017-06-10T19:03:01Z</time>
      </trkpt>
      <trkpt lat="44.12559" lon="3.7095">
        <ele>672.99863122837</ele>
        <time>2017-06-10T19:03:09Z</time>
      </trkpt>
      <trkpt lat="44.12557" lon="3.70951">
        <ele>672.99863122837</ele>
        <time>2017-06-10T19:03:15Z</time>
      </trkpt>
      <trkpt lat="44.12545" lon="3.70953">
        <ele>668.20694481012</ele>
        <time>2017-06-10T19:03:42Z</time>
      </trkpt>
      <trkpt lat="44.12504" lon="3.70948">
        <ele>663.13366229179</ele>
        <time>2017-06-10T19:04:30Z</time>
      </trkpt>
      <trkpt lat="44.12499" lon="3.70946">
        <ele>663.13366229179</ele>
        <time>2017-06-10T19:05:47Z</time>
      </trkpt>
      <trkpt lat="44.12501" lon="3.70947">
        <ele>663.13366229179</ele>
        <time>2017-06-10T19:07:58Z</time>
      </trkpt>
      <trkpt lat="44.12513" lon="3.7095">
        <ele>656.84008021925</ele>
        <time>2017-06-10T19:11:05Z</time>
      </trkpt>
      <trkpt lat="44.12504" lon="3.70946">
        <ele>656.84008021925</ele>
        <time>2017-06-10T19:14:09Z</time>
      </trkpt>
      <trkpt lat="44.12504" lon="3.70946">
        <ele>650.24762115343</ele>
        <time>2017-06-10T19:14:14Z</time>
      </trkpt>
      <trkpt lat="44.12503" lon="3.70945">
        <ele>650.24762115343</ele>
        <time>2017-06-10T19:17:38Z</time>
      </trkpt>
      <trkpt lat="44.12498" lon="3.70954">
        <ele>644.62869918376</ele>
        <time>2017-06-10T19:17:57Z</time>
      </trkpt>
      <trkpt lat="44.12508" lon="3.70955">
        <ele>639.57364031141</ele>
        <time>2017-06-10T19:18:14Z</time>
      </trkpt>
      <trkpt lat="44.12508" lon="3.70951">
        <ele>639.57364031141</ele>
        <time>2017-06-10T19:20:01Z</time>
      </trkpt>
      <trkpt lat="44.12516" lon="3.70943">
        <ele>635.47965425923</ele>
        <time>2017-06-10T19:22:05Z</time>
      </trkpt>
      <trkpt lat="44.12509" lon="3.70945">
        <ele>635.47965425923</ele>
        <time>2017-06-10T19:26:08Z</time>
      </trkpt>
      <trkpt lat="44.12507" lon="3.70944">
        <ele>631.5876741522</ele>
        <time>2017-06-10T19:33:19Z</time>
      </trkpt>
      <trkpt lat="44.12507" lon="3.70945">
        <ele>631.5876741522</ele>
        <time>2017-06-10T19:36:22Z</time>
      </trkpt>
      <trkpt lat="44.12502" lon="3.70934">
        <ele>628.63517226661</ele>
        <time>2017-06-10T19:41:47Z</time>
      </trkpt>
      <trkpt lat="44.12504" lon="3.70947">
        <ele>626.33698103586</ele>
        <time>2017-06-10T19:44:11Z</time>
      </trkpt>
      <trkpt lat="44.12512" lon="3.70951">
        <ele>626.33698103586</ele>
        <time>2017-06-10T19:46:24Z</time>
      </trkpt>
      <trkpt lat="44.12515" lon="3.70953">
        <ele>624.09550995447</ele>
        <time>2017-06-10T19:46:38Z</time>
      </trkpt>
      <trkpt lat="44.12507" lon="3.70947">
        <ele>622.13515078711</ele>
        <time>2017-06-10T19:48:18Z</time>
      </trkpt>
      <trkpt lat="44.12506" lon="3.70935">
        <ele>619.85586795795</ele>
        <time>2017-06-10T20:00:01Z</time>
      </trkpt>
      <trkpt lat="44.12505" lon="3.70935">
        <ele>619.85586795795</ele>
        <time>2017-06-10T20:00:43Z</time>
      </trkpt>
      <trkpt lat="44.12514" lon="3.7094">
        <ele>618.02847084754</ele>
        <time>2017-06-10T20:00:43Z</time>
      </trkpt>
      <trkpt lat="44.12504" lon="3.70944">
        <ele>616.789332739</ele>
        <time>2017-06-10T20:01:09Z</time>
      </trkpt>
      <trkpt lat="44.12512" lon="3.7095">
        <ele>616.23431027161</ele>
        <time>2017-06-10T20:11:21Z</time>
      </trkpt>
      <trkpt lat="44.12512" lon="3.70945">
        <ele>616.23431027161</ele>
        <time>2017-06-10T20:14:31Z</time>
      </trkpt>
      <trkpt lat="44.12512" lon="3.70932">
        <ele>615.2685546949</ele>
        <time>2017-06-10T20:16:22Z</time>
      </trkpt>
      <trkpt lat="44.12512" lon="3.70932">
        <ele>615.2685546949</ele>
        <time>2017-06-10T20:16:36Z</time>
      </trkpt>
      <trkpt lat="44.12504" lon="3.70938">
        <ele>614.65142890923</ele>
        <time>2017-06-10T20:18:29Z</time>
      </trkpt>
      <trkpt lat="44.12504" lon="3.70938">
        <ele>614.65142890923</ele>
        <time>2017-06-10T20:19:47Z</time>
      </trkpt>
      <trkpt lat="44.12512" lon="3.70942">
        <ele>614.27851530162</ele>
        <time>2017-06-10T20:19:47Z</time>
      </trkpt>
      <trkpt lat="44.12512" lon="3.70943">
        <ele>614.27851530162</ele>
        <time>2017-06-10T20:21:00Z</time>
      </trkpt>
      <trkpt lat="44.12504" lon="3.70936">
        <ele>614.29742218891</ele>
        <time>2017-06-10T20:22:30Z</time>
      </trkpt>
      <trkpt lat="44.12508" lon="3.70939">
        <ele>614.29742218891</ele>
        <time>2017-06-10T20:24:17Z</time>
      </trkpt>
      <trkpt lat="44.12507" lon="3.70942">
        <ele>614.29742218891</ele>
        <time>2017-06-10T20:26:01Z</time>
      </trkpt>
      <trkpt lat="44.12507" lon="3.70943">
        <ele>614.29742218891</ele>
        <time>2017-06-10T20:26:24Z</time>
      </trkpt>
      <trkpt lat="44.12507" lon="3.70942">
        <ele>614.29742218891</ele>
        <time>2017-06-10T20:26:25Z</time>
      </trkpt>
      <trkpt lat="44.12506" lon="3.70942">
        <ele>614.84388148003</ele>
        <time>2017-06-10T20:26:49Z</time>
      </trkpt>
      <trkpt lat="44.12497" lon="3.70939">
        <ele>615.48022296924</ele>
        <time>2017-06-10T20:27:02Z</time>
      </trkpt>
      <trkpt lat="44.1251" lon="3.70943">
        <ele>616.03136367624</ele>
        <time>2017-06-10T20:28:42Z</time>
      </trkpt>
      <trkpt lat="44.12509" lon="3.70945">
        <ele>616.03136367624</ele>
        <time>2017-06-10T20:30:52Z</time>
      </trkpt>
      <trkpt lat="44.12511" lon="3.70943">
        <ele>616.03136367624</ele>
        <time>2017-06-10T20:31:09Z</time>
      </trkpt>
      <trkpt lat="44.12509" lon="3.70945">
        <ele>616.03136367624</ele>
        <time>2017-06-10T20:31:35Z</time>
      </trkpt>
      <trkpt lat="44.12509" lon="3.70947">
        <ele>616.99836793017</ele>
        <time>2017-06-10T20:32:57Z</time>
      </trkpt>
      <trkpt lat="44.12509" lon="3.70948">
        <ele>616.99836793017</ele>
        <time>2017-06-10T20:32:57Z</time>
      </trkpt>
      <trkpt lat="44.12505" lon="3.70941">
        <ele>616.99836793017</ele>
        <time>2017-06-10T20:33:31Z</time>
      </trkpt>
      <trkpt lat="44.12506" lon="3.70942">
        <ele>616.99836793017</ele>
        <time>2017-06-10T20:34:24Z</time>
      </trkpt>
      <trkpt lat="44.12505" lon="3.70938">
        <ele>617.64833862442</ele>
        <time>2017-06-10T20:34:32Z</time>
      </trkpt>
      <trkpt lat="44.12505" lon="3.70938">
        <ele>617.64833862442</ele>
        <time>2017-06-10T20:34:42Z</time>
      </trkpt>
      <trkpt lat="44.12511" lon="3.70945">
        <ele>617.64833862442</ele>
        <time>2017-06-10T20:35:02Z</time>
      </trkpt>
      <trkpt lat="44.12508" lon="3.70947">
        <ele>619.06145290848</ele>
        <time>2017-06-10T20:35:37Z</time>
      </trkpt>
      <trkpt lat="44.12504" lon="3.70945">
        <ele>619.06145290848</ele>
        <time>2017-06-10T20:36:01Z</time>
      </trkpt>
      <trkpt lat="44.12508" lon="3.70946">
        <ele>619.06145290848</ele>
        <time>2017-06-10T20:39:36Z</time>
      </trkpt>
      <trkpt lat="44.12508" lon="3.70947">
        <ele>620.88192501551</ele>
        <time>2017-06-10T20:40:52Z</time>
      </trkpt>
      <trkpt lat="44.12506" lon="3.70948">
        <ele>620.88192501551</ele>
        <time>2017-06-10T20:42:21Z</time>
      </trkpt>
      <trkpt lat="44.12501" lon="3.70943">
        <ele>620.88192501551</ele>
        <time>2017-06-10T20:43:31Z</time>
      </trkpt>
      <trkpt lat="44.12496" lon="3.70943">
        <ele>622.3180039107</ele>
        <time>2017-06-10T20:43:32Z</time>
      </trkpt>
      <trkpt lat="44.12494" lon="3.70942">
        <ele>622.3180039107</ele>
        <time>2017-06-10T20:43:41Z</time>
      </trkpt>
      <trkpt lat="44.12504" lon="3.70946">
        <ele>623.48767249734</ele>
        <time>2017-06-10T20:46:34Z</time>
      </trkpt>
      <trkpt lat="44.12505" lon="3.70946">
        <ele>623.48767249734</ele>
        <time>2017-06-10T20:46:42Z</time>
      </trkpt>
      <trkpt lat="44.12516" lon="3.70945">
        <ele>623.99683583601</ele>
        <time>2017-06-10T20:52:56Z</time>
      </trkpt>
      <trkpt lat="44.125" lon="3.70943">
        <ele>624.63536903645</ele>
        <time>2017-06-10T20:55:16Z</time>
      </trkpt>
      <trkpt lat="44.12506" lon="3.70949">
        <ele>624.63536903645</ele>
        <time>2017-06-10T20:57:32Z</time>
      </trkpt>
      <trkpt lat="44.12506" lon="3.70951">
        <ele>626.69707314131</ele>
        <time>2017-06-10T21:03:32Z</time>
      </trkpt>
      <trkpt lat="44.12508" lon="3.70939">
        <ele>628.75410133688</ele>
        <time>2017-06-10T21:04:27Z</time>
      </trkpt>
      <trkpt lat="44.12505" lon="3.70946">
        <ele>628.75410133688</ele>
        <time>2017-06-10T21:06:08Z</time>
      </trkpt>
    </trkseg>
  </trk>
</gpx>